Time;durP1;ratioP1;P1;durP2;ratioP2;P2;SDS_P1;SDS_P2;PMS_P1;PMS_P2;Temp;Humidity;BMP_temperature;BMP_pressure;BME280_temperature;BME280_humidity;BME280_pressure;Samples;Min_cycle;Max_cycle;Signal;HPM_P1;HPM_P2
2024/04/16 00:02:27;;;;;;;16.90;5.30;;;;;;;24.06;46.36;96571.16;5048452;28;20040;-77
2024/04/16 00:05:06;;;;;;;7.60;4.55;;;;;;;23.92;46.31;96567.53;5032995;28;20367;-78
2024/04/16 00:07:49;;;;;;;11.60;4.90;;;;;;;23.75;47.09;96574.38;5025812;28;20033;-77
2024/04/16 00:14:32;;;;;;;;;;;;;;;;;;;;;
2024/04/16 00:17:22;;;;;;;;;;;;;;;;;;;;;
2024/04/16 00:23:23;;;;;;;15.25;5.47;;;;;;;23.45;45.98;96564.72;5034665;28;20560;-78
2024/04/16 00:29:21;;;;;;;14.05;4.50;;;;;;;23.14;47.61;96598.66;5096339;28;20069;-77
2024/04/16 00:32:07;;;;;;;6.32;4.25;;;;;;;23.01;48.36;96603.97;5095281;28;20529;-76
2024/04/16 00:35:04;;;;;;;7.03;3.90;;;;;;;22.94;48.08;96608.56;5110146;28;20071;-78
2024/04/16 00:37:54;;;;;;;;;;;;;;;;;;;;;
2024/04/16 00:41:21;;;;;;;9.27;4.35;;;;;;;22.73;47.13;96607.69;5085944;28;20028;-78
2024/04/16 00:44:52;;;;;;;;;;;;;;;;;;;;;
2024/04/16 00:47:46;;;;;;;9.23;3.80;;;;;;;22.34;47.46;96610.75;5077637;28;20036;-78
2024/04/16 00:50:39;;;;;;;7.15;3.58;;;;;;;22.23;47.46;96608.53;5089757;28;20016;-79
2024/04/16 00:53:40;;;;;;;;;;;;;;;;;;;;;
2024/04/16 00:56:34;;;;;;;10.35;4.28;;;;;;;22.15;45.09;96595.84;5088950;28;20485;-78
2024/04/16 00:59:26;;;;;;;8.55;3.50;;;;;;;22.29;44.83;96583.25;5073740;28;20036;-79
2024/04/16 01:05:17;;;;;;;7.47;3.63;;;;;;;22.55;43.00;96583.53;5068724;28;20410;-77
2024/04/16 01:08:10;;;;;;;6.47;3.75;;;;;;;22.59;43.07;96568.50;5070560;28;20025;-78
2024/04/16 01:11:08;;;;;;;;;;;;;;;;;;;;;
2024/04/16 01:17:15;;;;;;;7.22;3.78;;;;;;;22.50;41.69;96556.03;5069870;28;20530;-78
2024/04/16 01:20:05;;;;;;;6.50;3.72;;;;;;;22.75;39.48;96554.66;5065026;28;20040;-77
2024/04/16 01:23:26;;;;;;;;;;;;;;;;;;;;;
2024/04/16 01:26:20;;;;;;;5.32;3.42;;;;;;;22.67;39.25;96554.78;5068492;28;20043;-77
2024/04/16 01:29:35;;;;;;;8.73;4.00;;;;;;;22.71;40.82;96571.56;5052038;28;20452;-77
2024/04/16 01:35:46;;;;;;;13.50;8.05;;;;;;;22.43;39.00;96555.09;5055264;28;20404;-78
2024/04/16 01:38:35;;;;;;;;;;;;;;;;;;;;;
2024/04/16 01:41:42;;;;;;;11.02;3.90;;;;;;;22.34;38.54;96572.59;5068657;28;20034;-76
2024/04/16 01:44:52;;;;;;;;;;;;;;;;;;;;;
2024/04/16 01:48:07;;;;;;;10.32;3.08;;;;;;;22.45;37.28;96559.34;5067038;28;20066;-78
2024/04/16 01:51:26;;;;;;;7.43;3.25;;;;;;;22.58;36.46;96558.63;5064404;28;20036;-78
2024/04/16 01:54:02;;;;;;;6.47;3.03;;;;;;;22.51;36.20;96564.03;5069699;28;20029;-77
2024/04/16 01:57:30;;;;;;;7.32;3.53;;;;;;;22.78;35.26;96564.31;5069706;28;20518;-77
2024/04/16 02:00:25;;;;;;;10.43;3.22;;;;;;;22.67;35.27;96562.97;5065229;28;20029;-79
2024/04/16 02:03:20;;;;;;;6.93;2.92;;;;;;;22.66;35.84;96573.03;5090203;28;20040;-77
2024/04/16 02:09:24;;;;;;;;;;;;;;;;;;;;;
2024/04/16 02:12:17;;;;;;;8.32;3.25;;;;;;;22.30;37.85;96563.16;5089445;28;20020;-79
2024/04/16 02:15:30;;;;;;;;;;;;;;;;;;;;;
2024/04/16 02:18:34;;;;;;;7.82;3.33;;;;;;;21.83;42.41;96575.28;5051103;28;20500;-77
2024/04/16 02:21:41;;;;;;;8.50;3.10;;;;;;;21.73;39.61;96557.53;5078970;28;20038;-78
2024/04/16 02:24:17;;;;;;;7.93;3.35;;;;;;;21.90;39.00;96562.63;5093206;28;20027;-77
2024/04/16 02:27:26;;;;;;;8.25;3.60;;;;;;;21.95;38.88;96552.03;5075052;28;20042;-77
2024/04/16 02:30:12;;;;;;;10.00;3.75;;;;;;;21.80;38.79;96539.44;5074971;28;20032;-78
2024/04/16 02:33:01;;;;;;;7.13;2.72;;;;;;;21.73;39.05;96552.94;5093016;28;20466;-78
2024/04/16 02:36:16;;;;;;;6.80;3.28;;;;;;;21.74;38.64;96557.38;5091276;28;20030;-78
2024/04/16 02:39:25;;;;;;;7.28;3.10;;;;;;;21.58;39.66;96554.84;5102602;28;20024;-78
2024/04/16 02:42:09;;;;;;;;;;;;;;;;;;;;;
2024/04/16 02:45:01;;;;;;;;;;;;;;;;;;;;;
2024/04/16 02:54:10;;;;;;;6.68;3.67;;;;;;;21.41;39.36;96559.59;5067188;28;20458;-78
2024/04/16 02:56:49;;;;;;;10.15;3.75;;;;;;;21.39;39.71;96560.81;5075137;28;20028;-78
2024/04/16 02:59:53;;;;;;;;;;;;;;;;;;;;;
2024/04/16 03:03:12;;;;;;;;;;;;;;;;;;;;;
2024/04/16 03:06:04;;;;;;;18.45;4.30;;;;;;;21.96;38.14;96563.78;5077347;28;20023;-78
2024/04/16 03:09:08;;;;;;;7.45;3.30;;;;;;;21.87;39.01;96560.25;5075030;28;20425;-78
2024/04/16 03:12:04;;;;;;;4.88;3.17;;;;;;;21.75;39.08;96564.47;5080016;28;20464;-77
2024/04/16 03:18:05;;;;;;;;;;;;;;;;;;;;;
2024/04/16 03:20:48;;;;;;;;;;;;;;;;;;;;;
2024/04/16 03:23:35;;;;;;;15.73;5.72;;;;;;;21.15;41.18;96575.53;5046917;28;20036;-78
2024/04/16 03:26:29;;;;;;;22.20;5.55;;;;;;;21.00;41.56;96580.91;5028079;28;20411;-76
2024/04/16 03:33:06;;;;;;;;;;;;;;;;;;;;;
2024/04/16 03:38:38;;;;;;;14.90;5.28;;;;;;;20.47;43.74;96580.94;5075443;28;20457;-78
2024/04/16 03:44:42;;;;;;;;;;;;;;;;;;;;;
2024/04/16 03:48:04;;;;;;;33.60;8.80;;;;;;;20.21;43.78;96583.13;5075058;28;20030;-78
2024/04/16 03:50:56;;;;;;;;;;;;;;;;;;;;;
2024/04/16 03:53:30;;;;;;;6.13;3.72;;;;;;;20.07;45.47;96594.72;5076526;28;20135;-77
2024/04/16 03:56:16;;;;;;;13.60;4.38;;;;;;;19.94;45.66;96607.00;5107286;28;20039;-78
2024/04/16 04:02:09;;;;;;;24.98;5.00;;;;;;;20.06;45.90;96609.34;5091121;28;20132;-75
2024/04/16 04:05:00;;;;;;;;;;;;;;;20.09;46.20;96611.72;5103514;28;20564;-72
2024/04/16 04:11:08;;;;;;;14.43;3.85;;;;;;;20.28;44.48;96608.56;5056738;28;20043;-74
2024/04/16 04:13:48;;;;;;;10.90;4.03;;;;;;;20.54;43.99;96611.81;5070982;28;20094;-74
2024/04/16 04:16:39;;;;;;;17.10;5.28;;;;;;;20.69;45.33;96626.31;5070124;28;20054;-74
2024/04/16 04:19:36;;;;;;;9.20;3.83;;;;;;;20.81;44.20;96622.16;5025374;28;20124;-75
2024/04/16 04:22:18;;;;;;;;;;;;;;;;;;;;;
2024/04/16 04:34:41;;;;;;;25.40;8.00;;;;;;;21.01;46.28;96633.41;5064144;28;20035;-75
2024/04/16 04:37:18;;;;;;;35.80;8.07;;;;;;;21.00;46.70;96635.28;5089940;28;20124;-73
2024/04/16 04:39:58;;;;;;;28.98;9.13;;;;;;;21.06;50.08;96637.28;5090682;28;20112;-74
2024/04/16 04:46:33;;;;;;;24.98;7.20;;;;;;;21.18;48.44;96639.59;5042804;28;20506;-71
2024/04/16 04:52:15;;;;;;;12.30;6.03;;;;;;;21.17;47.20;96624.28;5051769;28;20064;-72
2024/04/16 04:54:43;;;;;;;;;;;;;;;21.21;47.31;96626.47;5057306;28;20036;-74
2024/04/16 04:57:45;;;;;;;35.72;10.32;;;;;;;21.28;48.58;96634.75;5065396;28;20323;-72
2024/04/16 05:00:45;;;;;;;;;;;;;;;;;;;;;
2024/04/16 05:04:07;;;;;;;;;;;;;;;;;;;;;
2024/04/16 05:07:11;;;;;;;45.22;19.70;;;;;;;21.42;48.37;96642.94;5109287;28;20035;-72
2024/04/16 05:10:18;;;;;;;;;;;;;;;;;;;;;
2024/04/16 05:13:26;;;;;;;;;;;;;;;;;;;;;
2024/04/16 05:16:55;;;;;;;18.83;5.45;;;;;;;22.15;47.40;96606.75;5111053;28;20039;-72
2024/04/16 05:19:57;;;;;;;13.13;5.03;;;;;;;22.32;46.88;96596.50;5085356;28;20098;-73
2024/04/16 05:23:01;;;;;;;11.38;4.22;;;;;;;22.35;46.25;96617.91;5064844;28;20056;-73
2024/04/16 05:29:24;;;;;;;22.83;5.00;;;;;;;22.81;46.64;96613.00;5039992;28;20459;-73
2024/04/16 05:32:10;;;;;;;;;;;;;;;;;;;;;
2024/04/16 05:35:03;;;;;;;14.32;5.90;;;;;;;22.46;46.78;96609.22;5064504;28;20074;-74
2024/04/16 05:37:55;;;;;;;18.08;6.47;;;;;;;22.35;47.24;96598.84;5051256;28;20119;-74
2024/04/16 05:41:09;;;;;;;13.90;4.27;;;;;;;22.39;46.15;96598.28;5050418;28;20084;-73
2024/04/16 05:43:51;;;;;;;17.58;7.22;;;;;;;22.48;45.86;96596.28;5069727;28;20052;-73
2024/04/16 05:46:39;;;;;;;17.70;7.75;;;;;;;22.47;44.28;96568.16;5056421;28;20044;-74
2024/04/16 05:49:18;;;;;;;6.68;3.47;;;;;;;22.82;41.53;96557.44;5089701;28;20487;-74
2024/04/16 05:52:13;;;;;;;14.10;5.55;;;;;;;23.11;41.86;96560.84;5090174;28;20043;-74
2024/04/16 05:55:08;;;;;;;28.27;8.30;;;;;;;23.35;42.21;96572.41;5072454;28;20036;-74
2024/04/16 05:58:10;;;;;;;;;;;;;;;;;;;;;
2024/04/16 06:00:58;;;;;;;14.23;3.78;;;;;;;23.61;40.81;96543.41;5051403;28;20070;-74
2024/04/16 06:04:36;;;;;;;12.25;4.85;;;;;;;23.94;38.82;96540.84;5067250;28;20488;-75
2024/04/16 06:06:56;;;;;;;18.92;4.35;;;;;;;24.23;38.26;96551.53;5060685;28;20051;-72
2024/04/16 06:09:42;;;;;;;18.27;4.65;;;;;;;24.41;38.17;96547.38;5090427;28;20046;-72
2024/04/16 06:12:47;;;;;;;;;;;;;;;;;;;;;
2024/04/16 06:15:32;;;;;;;;;;;;;;;;;;;;;
2024/04/16 06:21:54;;;;;;;11.10;3.80;;;;;;;24.96;39.00;96555.31;5074195;28;20122;-73
2024/04/16 06:25:23;;;;;;;14.52;4.57;;;;;;;24.97;39.63;96559.75;5088430;28;20154;-72
2024/04/16 06:28:44;;;;;;;;;;;;;;;;;;;;;
2024/04/16 06:31:50;;;;;;;28.33;6.05;;;;;;;24.62;39.92;96550.81;5090062;28;20036;-73
2024/04/16 06:35:04;;;;;;;;;;;;;;;;;;;;;
2024/04/16 06:38:08;;;;;;;16.25;5.15;;;;;;;24.57;39.79;96520.53;5070840;28;20400;-73
2024/04/16 06:40:41;;;;;;;13.82;4.57;;;;;;;24.57;38.41;96525.13;5105600;28;20520;-73
2024/04/16 06:43:33;;;;;;;20.05;5.32;;;;;;;24.38;39.07;96521.31;5069711;28;20050;-74
2024/04/16 06:46:20;;;;;;;37.65;7.15;;;;;;;24.52;40.14;96528.47;5088813;28;20062;-73
2024/04/16 06:49:31;;;;;;;;;;;;;;;;;;;;;
2024/04/16 06:52:56;;;;;;;;;;;;;;;;;;;;;
2024/04/16 06:59:14;;;;;;;;;;;;;;;;;;;;;
2024/04/16 07:01:45;;;;;;;24.33;8.07;;;;;;;25.57;37.88;96475.69;5071374;28;20031;-75
2024/04/16 07:04:53;;;;;;;10.40;4.32;;;;;;;25.51;37.30;96473.81;5051647;28;20527;-73
2024/04/16 07:10:32;;;;;;;15.75;4.57;;;;;;;25.46;38.15;96487.28;5054253;28;20032;-74
2024/04/16 07:17:23;;;;;;;13.93;4.57;;;;;;;25.33;38.57;96477.19;5064159;28;20087;-75
2024/04/16 07:20:05;;;;;;;22.98;6.60;;;;;;;25.18;38.60;96474.69;5035708;28;20036;-74
2024/04/16 07:23:00;;;;;;;;;;;;;;;;;;;;;
2024/04/16 07:26:09;;;;;;;19.05;4.82;;;;;;;25.24;38.70;96479.31;5068843;28;20032;-74
2024/04/16 07:32:14;;;;;;;;;;;;;;;;;;;;;
2024/04/16 07:35:12;;;;;;;30.67;5.38;;;;;;;25.37;37.24;96458.44;5068524;28;20083;-74
2024/04/16 07:47:20;;;;;;;29.00;6.28;;;;;;;25.45;38.24;96480.13;5068446;28;20044;-75
2024/04/16 07:50:30;;;;;;;;;;;;;;;;;;;;;
2024/04/16 07:53:45;;;;;;;25.95;5.60;;;;;;;25.49;37.36;96486.88;5068099;28;20328;-75
2024/04/16 08:00:08;;;;;;;27.15;5.68;;;;;;;25.45;38.42;96496.53;5067829;28;20043;-74
2024/04/16 08:03:07;;;;;;;39.42;5.53;;;;;;;25.41;38.26;96489.84;5073268;28;20075;-76
2024/04/16 08:05:46;;;;;;;24.38;5.80;;;;;;;25.29;38.69;96486.88;5083280;28;20054;-74
2024/04/16 08:08:51;;;;;;;14.60;4.43;;;;;;;25.27;38.56;96484.38;5088050;28;20039;-73
2024/04/16 08:12:01;;;;;;;27.67;5.57;;;;;;;25.15;38.75;96482.47;5054047;28;20580;-72
2024/04/16 08:15:11;;;;;;;;;;;;;;;;;;;;;
2024/04/16 08:18:12;;;;;;;;;;;;;;;;;;;;;
2024/04/16 08:21:23;;;;;;;20.98;4.60;;;;;;;24.81;38.46;96489.00;5079684;28;20053;-73
2024/04/16 08:24:26;;;;;;;24.95;5.32;;;;;;;24.84;38.25;96494.06;5087768;28;20024;-73
2024/04/16 08:27:15;;;;;;;21.38;4.70;;;;;;;24.87;38.56;96482.69;5087361;28;20103;-74
2024/04/16 08:30:04;;;;;;;;;;;;;;;;;;;;;
2024/04/16 08:32:42;;;;;;;11.32;4.32;;;;;;;24.91;37.62;96478.50;5071900;28;20032;-73
2024/04/16 08:36:04;;;;;;;22.35;4.50;;;;;;;25.01;37.61;96473.41;5086673;28;20114;-74
2024/04/16 08:38:57;;;;;;;19.60;4.45;;;;;;;25.06;37.61;96470.91;5071952;28;20035;-73
2024/04/16 08:41:56;;;;;;;19.73;5.07;;;;;;;25.10;37.70;96469.41;5103158;28;20118;-74
2024/04/16 08:45:20;;;;;;;21.40;4.68;;;;;;;25.06;37.61;96449.03;5081299;28;20356;-74
2024/04/16 08:47:58;;;;;;;24.85;4.72;;;;;;;25.11;37.65;96462.06;5027857;28;20429;-73
2024/04/16 08:51:32;;;;;;;22.33;4.85;;;;;;;25.11;38.06;96473.00;5087352;28;20516;-74
2024/04/16 08:54:15;;;;;;;31.20;4.90;;;;;;;25.07;37.42;96458.91;5058385;28;20058;-73
2024/04/16 08:56:54;;;;;;;;;;;;;;;;;;;;;
2024/04/16 08:59:51;;;;;;;25.48;4.45;;;;;;;25.07;38.32;96455.34;5070700;28;20366;-72
2024/04/16 09:02:50;;;;;;;22.15;5.00;;;;;;;25.04;38.80;96456.56;5080650;28;20118;-73
2024/04/16 09:09:04;;;;;;;21.95;5.68;;;;;;;24.78;39.04;96459.31;5045013;28;20484;-75
2024/04/16 09:11:43;;;;;;;23.58;4.90;;;;;;;24.79;39.15;96447.31;5054811;28;20056;-75
2024/04/16 09:14:28;;;;;;;21.27;4.63;;;;;;;24.74;39.22;96449.81;5054730;28;20376;-75
2024/04/16 09:17:42;;;;;;;;;;;;;;;;;;;;;
2024/04/16 09:20:46;;;;;;;14.02;4.50;;;;;;;24.83;38.85;96453.22;5064589;28;20024;-76
2024/04/16 09:23:32;;;;;;;20.33;5.38;;;;;;;24.85;39.43;96456.59;5056189;28;20111;-75
2024/04/16 09:26:39;;;;;;;21.33;4.57;;;;;;;24.72;40.01;96449.22;5040131;28;20086;-75
2024/04/16 09:29:41;;;;;;;25.05;4.70;;;;;;;24.68;39.75;96456.97;5070891;28;21482;-75
2024/04/16 09:32:33;;;;;;;14.70;4.57;;;;;;;24.65;39.75;96451.94;4984666;28;20048;-76
2024/04/16 09:41:51;;;;;;;28.27;5.70;;;;;;;24.80;40.67;96432.56;5055682;28;20127;-76
2024/04/16 09:44:43;;;;;;;19.83;4.75;;;;;;;24.76;40.33;96432.16;5070671;28;20028;-75
2024/04/16 09:48:30;;;;;;;24.23;4.43;;;;;;;24.75;39.97;96435.09;5070681;28;20032;-75
2024/04/16 09:51:25;;;;;;;12.95;3.85;;;;;;;24.89;38.95;96431.34;5066621;28;20056;-74
2024/04/16 09:54:09;;;;;;;26.30;4.95;;;;;;;25.03;39.51;96422.06;4954314;28;20105;-75
2024/04/16 10:00:13;;;;;;;;;;;;;;;;;;;;;
2024/04/16 10:02:58;;;;;;;;;;;;;;;;;;;;;
2024/04/16 10:06:00;;;;;;;21.17;4.65;;;;;;;25.71;37.63;96420.66;5053984;28;20419;-75
2024/04/16 10:09:17;;;;;;;19.88;5.15;;;;;;;25.70;37.42;96413.50;5069451;28;20028;-74
2024/04/16 10:12:29;;;;;;;25.42;5.28;;;;;;;25.78;37.66;96409.66;5069670;28;20079;-77
2024/04/16 10:15:28;;;;;;;;;;;;;;;25.87;36.97;96405.63;5069771;28;20408;-74
2024/04/16 10:18:34;;;;;;;24.92;4.15;;;;;;;25.96;37.08;96401.59;5069996;28;19916;-74
2024/04/16 10:21:07;;;;;;;21.55;5.20;;;;;;;26.01;36.55;96389.94;5068113;28;20475;-75
2024/04/16 10:23:52;;;;;;;;;;;;;;;;;;;;;
2024/04/16 10:26:36;;;;;;;16.83;4.93;;;;;;;26.20;36.95;96381.66;5070247;28;20020;-75
2024/04/16 10:35:18;;;;;;;21.25;4.55;;;;;;;26.61;36.32;96372.06;5014587;28;20037;-73
2024/04/16 10:38:06;;;;;;;;;;;;;;;;;;;;;
2024/04/16 10:41:31;;;;;;;;;;;;;;;;;;;;;
2024/04/16 10:44:15;;;;;;;27.30;4.68;;;;;;;27.04;36.42;96370.19;5027444;28;20045;-74
2024/04/16 10:46:57;;;;;;;21.50;4.53;;;;;;;27.29;36.43;96357.25;5011301;28;20416;-75
2024/04/16 10:49:28;;;;;;;18.45;4.63;;;;;;;27.45;35.67;96364.91;5026072;28;20045;-75
2024/04/16 10:52:09;;;;;;;29.50;4.72;;;;;;;27.54;35.86;96356.34;5027134;28;20101;-75
2024/04/16 10:55:04;;;;;;;;;;;;;;;;;;;;;
2024/04/16 11:01:25;;;;;;;17.92;4.35;;;;;;;27.55;36.65;96361.63;5066440;28;20071;-74
2024/04/16 11:04:36;;;;;;;;;;;;;;;;;;;;;
2024/04/16 11:07:51;;;;;;;15.52;4.22;;;;;;;27.59;35.84;96349.13;5054167;28;20359;-74
2024/04/16 11:10:33;;;;;;;29.70;5.28;;;;;;;27.71;36.11;96350.03;5068908;28;20038;-75
2024/04/16 11:13:33;;;;;;;15.38;4.45;;;;;;;27.78;36.49;96341.69;5051364;28;20028;-74
2024/04/16 11:20:08;;;;;;;24.38;4.63;;;;;;;27.78;35.21;96333.44;5068800;28;20051;-75
2024/04/16 11:23:05;;;;;;;19.02;4.85;;;;;;;27.81;35.18;96325.53;5036980;28;20060;-74
2024/04/16 11:25:42;;;;;;;22.58;4.38;;;;;;;28.02;35.01;96324.22;5048308;28;20079;-74
2024/04/16 11:28:18;;;;;;;24.13;4.80;;;;;;;28.21;35.66;96322.28;5050806;28;20499;-76
2024/04/16 11:31:20;;;;;;;20.48;4.25;;;;;;;28.14;36.09;96329.78;5068866;28;20024;-74
2024/04/16 11:34:23;;;;;;;23.38;4.95;;;;;;;27.94;36.93;96330.88;5051966;28;20124;-74
2024/04/16 11:40:24;;;;;;;17.60;4.57;;;;;;;27.95;37.58;96323.47;5000501;28;20053;-75
2024/04/16 11:43:41;;;;;;;16.83;4.72;;;;;;;27.85;37.10;96320.44;5045899;28;20411;-74
2024/04/16 11:46:35;;;;;;;17.90;4.65;;;;;;;27.77;35.73;96312.50;5068667;28;20032;-74
2024/04/16 11:49:27;;;;;;;37.80;5.70;;;;;;;27.92;36.38;96323.94;5068855;28;20063;-74
2024/04/16 11:55:25;;;;;;;25.23;4.78;;;;;;;28.29;35.84;96320.00;5068296;28;19920;-75
2024/04/16 11:58:46;;;;;;;22.25;5.55;;;;;;;28.33;35.40;96312.94;5050241;28;20044;-75
2024/04/16 12:01:57;;;;;;;22.25;5.57;;;;;;;28.26;35.87;96312.22;5056928;28;20033;-73
2024/04/16 12:04:41;;;;;;;24.38;5.30;;;;;;;28.13;35.93;96303.34;5067837;28;20075;-73
2024/04/16 12:10:57;;;;;;;35.55;5.30;;;;;;;28.14;35.67;96291.28;5064141;28;20131;-73
2024/04/16 12:13:58;;;;;;;25.65;5.68;;;;;;;28.38;34.99;96274.56;5068119;28;20028;-74
2024/04/16 12:17:20;;;;;;;;;;;;;;;;;;;;;
2024/04/16 12:20:35;;;;;;;29.70;5.28;;;;;;;30.37;32.88;96256.47;5044851;28;20055;-73
2024/04/16 12:26:20;;;;;;;20.27;5.03;;;;;;;35.55;26.99;96213.09;5064967;28;20093;-75
2024/04/16 12:29:07;;;;;;;25.60;5.88;;;;;;;37.62;25.88;96210.56;5067825;28;20067;-74
2024/04/16 12:31:52;;;;;;;26.67;5.60;;;;;;;38.92;24.77;96201.31;5066932;28;20404;-75
2024/04/16 12:34:25;;;;;;;29.95;5.63;;;;;;;39.06;24.12;96192.94;5067902;28;20047;-75
2024/04/16 12:37:43;;;;;;;27.02;5.90;;;;;;;38.40;24.82;96188.50;5050409;28;20120;-76
2024/04/16 12:40:59;;;;;;;;;;;;;;;;;;;;;
2024/04/16 12:43:56;;;;;;;34.22;6.43;;;;;;;37.24;25.91;96184.50;5053366;28;20029;-74
2024/04/16 12:46:50;;;;;;;31.48;6.43;;;;;;;37.54;25.49;96177.72;5062905;28;20488;-75
2024/04/16 12:49:56;;;;;;;22.48;4.88;;;;;;;37.32;25.45;96167.91;5051701;28;20031;-73
2024/04/16 12:56:26;;;;;;;32.00;6.28;;;;;;;34.74;28.43;96157.72;5067403;28;20090;-74
2024/04/16 12:59:18;;;;;;;33.72;6.25;;;;;;;34.09;28.66;96161.31;5066392;28;20063;-74
2024/04/16 13:02:04;;;;;;;;;;;;;;;;;;;;;
2024/04/16 13:04:51;;;;;;;34.78;6.47;;;;;;;32.39;29.07;96163.09;5043717;28;20434;-74
2024/04/16 13:07:36;;;;;;;27.92;6.22;;;;;;;31.52;29.63;96149.56;5067619;28;20036;-74
2024/04/16 13:10:35;;;;;;;37.15;6.82;;;;;;;31.06;30.80;96136.31;5050297;28;20050;-74
2024/04/16 13:13:56;;;;;;;29.13;6.88;;;;;;;30.89;31.42;96146.53;5067795;28;20025;-74
2024/04/16 13:16:51;;;;;;;36.10;6.72;;;;;;;30.67;32.07;96145.72;5065817;28;20056;-73
2024/04/16 13:20:13;;;;;;;28.50;5.78;;;;;;;30.64;31.51;96138.75;5064748;28;20141;-73
2024/04/16 13:26:06;;;;;;;41.85;7.07;;;;;;;29.88;33.03;96131.22;5041463;28;20051;-73
2024/04/16 13:29:23;;;;;;;;;;;;;;;;;;;;;
2024/04/16 13:32:34;;;;;;;41.70;6.60;;;;;;;29.47;33.57;96132.41;5070373;28;20036;-74
2024/04/16 13:35:26;;;;;;;38.35;5.88;;;;;;;29.18;34.06;96120.53;5025764;28;20032;-74
2024/04/16 13:38:16;;;;;;;;;;;;;;;28.87;34.09;96126.53;5070884;28;20115;-75
2024/04/16 13:41:08;;;;;;;38.83;7.20;;;;;;;28.77;34.42;96115.28;5051710;28;19912;-75
2024/04/16 13:44:11;;;;;;;31.80;6.38;;;;;;;28.97;34.47;96110.22;5052795;28;20392;-74
2024/04/16 13:47:18;;;;;;;29.58;5.90;;;;;;;29.21;34.76;96105.44;5051686;28;20036;-75
2024/04/16 13:50:15;;;;;;;29.02;5.85;;;;;;;29.27;35.41;96099.81;5069890;28;20027;-75
2024/04/16 13:56:03;;;;;;;;;;;;;;;;;;;;;
2024/04/16 14:02:14;;;;;;;;;;;;;;;;;;;;;
2024/04/16 14:05:06;;;;;;;32.92;6.30;;;;;;;29.35;36.77;96095.78;5073461;28;20044;-76
2024/04/16 14:08:07;;;;;;;;;;;;;;;;;;;;;
2024/04/16 14:11:15;;;;;;;36.45;6.85;;;;;;;29.10;35.12;96087.06;5072820;28;20035;-75
2024/04/16 14:17:15;;;;;;;48.30;7.05;;;;;;;28.84;35.70;96069.19;5028504;28;20037;-76
2024/04/16 14:23:21;;;;;;;30.80;5.95;;;;;;;28.40;36.89;96076.22;4948623;28;20105;-75
2024/04/16 14:26:17;;;;;;;40.78;6.40;;;;;;;28.22;35.22;96068.97;5048699;28;20051;-75
2024/04/16 14:29:05;;;;;;;38.45;6.63;;;;;;;28.02;35.09;96063.00;5072894;28;20443;-76
2024/04/16 14:31:41;;;;;;;39.08;6.13;;;;;;;28.01;35.22;96064.06;5072415;28;20032;-74
2024/04/16 14:35:04;;;;;;;;;;;;;;;;;;;;;
2024/04/16 14:37:33;;;;;;;29.75;6.20;;;;;;;28.20;35.21;96065.63;5053333;28;20152;-77
2024/04/16 14:40:05;;;;;;;40.58;6.18;;;;;;;28.28;35.25;96058.91;5072685;28;20024;-73
2024/04/16 14:42:53;;;;;;;;;;;;;;;28.36;35.68;96056.59;5053345;28;20852;-75
2024/04/16 14:45:39;;;;;;;36.58;5.38;;;;;;;28.25;35.62;96045.63;5055819;28;19916;-75
2024/04/16 14:48:23;;;;;;;50.35;6.35;;;;;;;28.27;36.18;96049.81;5052904;28;20028;-75
2024/04/16 14:57:26;;;;;;;33.50;6.00;;;;;;;28.12;35.84;96057.72;4987346;28;20114;-74
2024/04/16 15:00:25;;;;;;;32.97;6.65;;;;;;;28.18;34.89;96039.44;5052174;28;20479;-76
2024/04/16 15:03:33;;;;;;;39.17;5.70;;;;;;;28.18;34.83;96026.50;5069371;28;20053;-75
2024/04/16 15:06:24;;;;;;;39.08;6.45;;;;;;;28.25;35.30;96035.47;5086331;28;20036;-75
2024/04/16 15:12:21;;;;;;;127.15;57.83;;;;;;;28.19;35.45;96033.69;5078169;28;20035;-76
2024/04/16 15:15:00;;;;;;;37.65;6.28;;;;;;;27.93;33.56;95998.44;5071326;28;20541;-74
2024/04/16 15:18:04;;;;;;;;;;;;;;;;;;;;;
2024/04/16 15:20:52;;;;;;;41.95;7.03;;;;;;;27.73;35.04;96019.97;5073945;28;20028;-78
2024/04/16 15:24:13;;;;;;;32.75;6.35;;;;;;;27.63;35.42;96019.72;5055251;28;20042;-74
2024/04/16 15:27:06;;;;;;;;;;;;;;;;;;;;;
2024/04/16 15:29:54;;;;;;;110.50;36.67;;;;;;;27.50;36.08;96015.31;5089286;28;20023;-75
2024/04/16 15:36:18;;;;;;;;;;;;;;;;;;;;;
2024/04/16 15:42:26;;;;;;;30.05;6.47;;;;;;;27.13;35.71;95994.59;5043160;28;20050;-75
2024/04/16 15:45:36;;;;;;;29.25;6.13;;;;;;;27.01;36.31;96002.78;5085897;28;20057;-73
2024/04/16 15:48:45;;;;;;;47.42;6.95;;;;;;;26.92;36.60;95996.78;5070825;28;20036;-73
2024/04/16 15:51:49;;;;;;;;;;;;;;;;;;;;;
2024/04/16 15:54:44;;;;;;;33.92;5.47;;;;;;;26.82;36.66;95992.97;5005805;28;20037;-76
2024/04/16 16:01:33;;;;;;;33.83;6.32;;;;;;;26.60;35.48;95991.78;5088460;28;20115;-72
2024/04/16 16:04:35;;;;;;;64.25;19.73;;;;;;;26.54;35.41;95973.50;5088487;28;20040;-75
2024/04/16 16:07:33;;;;;;;26.02;5.78;;;;;;;26.53;35.32;95986.38;5059218;28;20117;-75
2024/04/16 16:10:23;;;;;;;47.72;13.40;;;;;;;26.51;35.55;95982.19;5061277;28;20032;-75
2024/04/16 16:13:16;;;;;;;33.53;5.35;;;;;;;26.56;35.53;95980.44;5080880;28;20036;-76
2024/04/16 16:16:19;;;;;;;33.67;5.32;;;;;;;26.54;34.49;95973.50;5088407;28;20457;-76
2024/04/16 16:21:58;;;;;;;26.50;5.32;;;;;;;26.47;35.58;95965.38;5088189;28;20028;-77
2024/04/16 16:24:52;;;;;;;30.35;5.07;;;;;;;26.36;35.58;95968.91;5072925;28;20038;-77
2024/04/16 16:28:02;;;;;;;32.58;6.28;;;;;;;26.31;35.88;95966.00;5085353;28;20058;-77
2024/04/16 16:30:51;;;;;;;39.08;6.68;;;;;;;26.15;36.31;95948.28;5084217;28;20040;-76
2024/04/16 16:36:57;;;;;;;20.80;5.50;;;;;;;25.94;36.61;95953.38;5085518;28;20031;-76
2024/04/16 16:39:34;;;;;;;31.30;6.07;;;;;;;25.87;36.05;95951.56;5065887;28;20052;-75
2024/04/16 16:42:47;;;;;;;;;;;;;;;;;;;;;
2024/04/16 16:45:41;;;;;;;26.52;6.82;;;;;;;25.61;37.22;95948.31;5046511;28;20066;-80
2024/04/16 16:48:40;;;;;;;29.80;5.95;;;;;;;25.59;36.82;95955.91;5078899;28;20027;-77
2024/04/16 16:52:15;;;;;;;;;;;;;;;;;;;;;
2024/04/16 16:54:50;;;;;;;34.53;6.20;;;;;;;25.30;37.86;95955.53;5105270;27;20064;-72
2024/04/16 16:57:28;;;;;;;37.58;9.68;;;;;;;25.27;37.77;95949.69;5086516;28;20435;-75
2024/04/16 17:00:40;;;;;;;29.45;6.78;;;;;;;25.26;37.48;95943.38;5088338;28;20047;-74
2024/04/16 17:03:38;;;;;;;24.10;5.30;;;;;;;25.20;37.79;95948.91;5083759;28;20036;-73
2024/04/16 17:06:55;;;;;;;28.58;5.22;;;;;;;25.10;38.44;95956.81;5097162;28;20066;-72
2024/04/16 17:10:01;;;;;;;36.88;6.15;;;;;;;24.92;38.78;95948.53;5128208;28;20099;-73
2024/04/16 17:13:18;;;;;;;52.60;12.98;;;;;;;24.75;38.70;95931.81;5121650;28;20036;-75
2024/04/16 17:16:24;;;;;;;45.17;13.73;;;;;;;24.74;39.45;95946.53;5075078;28;20039;-75
2024/04/16 17:19:27;;;;;;;;;;;;;;;;;;;;;
2024/04/16 17:22:33;;;;;;;31.33;6.82;;;;;;;24.58;39.90;95947.09;5115693;28;20386;-74
2024/04/16 17:25:31;;;;;;;;;;;;;;;;;;;;;
2024/04/16 17:29:02;;;;;;;;;;;;;;;;;;;;;
2024/04/16 17:32:13;;;;;;;26.80;6.13;;;;;;;24.36;40.87;95959.44;5108504;28;20031;-73
2024/04/16 17:35:01;;;;;;;26.98;5.70;;;;;;;24.33;40.97;95957.97;4992900;28;20520;-75
2024/04/16 17:41:15;;;;;;;22.65;6.57;;;;;;;24.18;41.53;95962.88;5087719;28;20126;-73
2024/04/16 17:44:02;;;;;;;34.55;5.97;;;;;;;24.15;41.49;95958.69;5110361;27;20038;-74
2024/04/16 17:50:18;;;;;;;;;;;;;;;;;;;;;
2024/04/16 17:55:58;;;;;;;40.40;6.72;;;;;;;24.04;42.35;95959.34;5117211;27;20471;-74
2024/04/16 17:59:01;;;;;;;39.25;6.32;;;;;;;23.96;42.55;95965.06;5132138;27;20628;-74
2024/04/16 18:01:50;;;;;;;33.60;6.28;;;;;;;23.91;42.97;95973.06;5131772;27;20031;-74
2024/04/16 18:04:32;;;;;;;28.25;5.78;;;;;;;23.96;42.42;95970.53;5120834;27;20089;-74
2024/04/16 18:07:08;;;;;;;24.13;6.03;;;;;;;23.98;41.98;95973.03;5107270;28;20182;-74
2024/04/16 18:09:39;;;;;;;51.22;16.85;;;;;;;23.91;42.21;95975.78;5109867;28;20273;-72
2024/04/16 18:16:02;;;;;;;33.88;6.63;;;;;;;24.11;41.11;95973.84;5089126;28;20047;-73
2024/04/16 18:22:35;;;;;;;16.08;4.40;;;;;;;24.23;39.95;95963.06;5053100;28;20048;-73
2024/04/16 18:25:12;;;;;;;29.48;5.53;;;;;;;24.30;40.43;95963.03;5087566;28;20039;-74
2024/04/16 18:28:19;;;;;;;25.77;5.70;;;;;;;24.32;40.54;95963.66;5072526;28;20051;-74
2024/04/16 18:34:17;;;;;;;34.92;6.30;;;;;;;24.17;41.15;95977.59;5044371;28;20047;-74
2024/04/16 18:37:17;;;;;;;27.13;5.57;;;;;;;24.23;39.93;95971.28;5090452;28;20088;-73
2024/04/16 18:40:39;;;;;;;;;;;;;;;;;;;;;
2024/04/16 18:43:55;;;;;;;31.67;5.20;;;;;;;24.20;39.78;95964.34;5088627;28;20016;-73
2024/04/16 18:46:49;;;;;;;31.42;5.72;;;;;;;24.20;40.39;95974.44;5074353;28;20089;-74
2024/04/16 18:49:32;;;;;;;;;;;;;;;;;;;;;
2024/04/16 18:56:23;;;;;;;;;;;;;;;;;;;;;